createdAt,value
2022-12-23T00:02:35.643Z,100581.81
2022-12-23T00:08:02.846Z,100576.78
2022-12-23T00:13:22.760Z,100577.53
2022-12-23T00:18:25.391Z,100579.88
2022-12-23T00:23:27.692Z,100577.72
2022-12-23T00:28:32.151Z,100590.34
2022-12-23T00:33:39.852Z,100588.94
2022-12-23T00:39:00.091Z,100578.16
2022-12-23T00:44:03.238Z,100593.88
2022-12-23T00:49:23.852Z,100599.03
2022-12-23T00:54:26.274Z,100598.00
2022-12-23T00:59:27.968Z,100605.03
2022-12-23T01:04:48.114Z,100604.19
2022-12-23T01:09:49.662Z,100610.09
2022-12-23T01:15:04.698Z,100618.91
2022-12-23T01:20:09.308Z,100624.31
2022-12-23T01:25:11.252Z,100631.72
2022-12-23T01:30:13.475Z,100632.75
2022-12-23T01:35:15.519Z,100632.66
2022-12-23T01:41:09.251Z,100632.94
2022-12-23T01:46:11.763Z,100641.28
2022-12-23T01:51:18.340Z,100644.03
2022-12-23T01:56:24.833Z,100648.19
2022-12-23T02:01:45.739Z,100647.28
2022-12-23T02:07:09.608Z,100647.41
2022-12-23T02:19:45.297Z,100664.47
2022-12-23T02:24:56.073Z,100665.31
2022-12-23T02:30:20.017Z,100675.59
2022-12-23T02:36:15.676Z,100681.69
2022-12-23T02:41:28.798Z,100684.31
2022-12-23T02:46:45.744Z,100698.81
2022-12-23T02:51:51.030Z,100706.56
2022-12-23T02:56:54.457Z,100716.75
2022-12-23T03:01:57.462Z,100725.38
2022-12-23T03:07:04.487Z,100723.78
2022-12-23T03:12:16.072Z,100722.72
2022-12-23T03:17:47.077Z,100736.34
2022-12-23T03:23:01.580Z,100739.00
2022-12-23T03:28:40.105Z,100740.66
2022-12-23T03:33:46.433Z,100745.09
2022-12-23T03:38:51.956Z,100735.41
2022-12-23T03:44:02.488Z,100725.78
2022-12-23T03:49:09.135Z,100728.38
2022-12-23T03:54:17.131Z,100721.16
2022-12-23T03:59:20.802Z,100714.00
2022-12-23T04:04:40.641Z,100720.19
2022-12-23T04:09:42.936Z,100715.31
2022-12-23T04:15:10.708Z,100714.47
2022-12-23T04:20:15.731Z,100714.16
2022-12-23T04:25:18.185Z,100724.91
2022-12-23T04:30:19.924Z,100732.53
2022-12-23T04:35:21.645Z,100740.41
2022-12-23T04:40:23.591Z,100750.13
2022-12-23T04:45:25.282Z,100781.41
2022-12-23T04:50:26.997Z,100782.66
2022-12-23T04:55:28.633Z,100769.28
2022-12-23T05:00:34.107Z,100767.94
2022-12-23T05:05:44.299Z,100760.22
2022-12-23T05:10:46.020Z,100756.34
2022-12-23T05:15:50.794Z,100758.28
2022-12-23T05:20:52.531Z,100747.34
2022-12-23T05:25:54.897Z,100739.09
2022-12-23T05:31:03.831Z,100740.06
2022-12-23T05:36:06.051Z,100759.09
2022-12-23T05:41:10.986Z,100754.09
2022-12-23T05:46:16.927Z,100765.66
2022-12-23T05:51:21.583Z,100772.00
2022-12-23T05:56:23.211Z,100786.22
2022-12-23T06:01:24.875Z,100800.28
2022-12-23T06:06:26.407Z,100803.59
2022-12-23T06:11:28.241Z,100794.34
2022-12-23T06:16:29.918Z,100795.84
2022-12-23T06:21:32.075Z,100785.47
2022-12-23T06:26:34.363Z,100778.19
2022-12-23T06:31:35.944Z,100774.16
2022-12-23T06:36:37.741Z,100770.75
2022-12-23T06:41:39.512Z,100790.91
2022-12-23T06:46:41.077Z,100780.25
2022-12-23T06:51:42.637Z,100775.09
2022-12-23T06:56:45.415Z,100778.00
2022-12-23T07:01:49.457Z,100771.69
2022-12-23T07:06:51.200Z,100757.66
2022-12-23T07:11:53.047Z,100767.66
2022-12-23T07:16:54.803Z,100790.03
2022-12-23T07:21:56.384Z,100806.50
2022-12-23T07:26:58.115Z,100832.03
2022-12-23T07:32:01.883Z,100831.19
2022-12-23T07:37:03.538Z,100850.56
2022-12-23T07:47:26.685Z,100835.22
2022-12-23T07:52:30.029Z,100829.44
2022-12-23T07:57:37.821Z,100835.59
2022-12-23T08:02:40.172Z,100855.41
2022-12-23T08:07:42.294Z,100865.81
2022-12-23T08:12:44.153Z,100856.75
2022-12-23T08:17:45.873Z,100858.47
2022-12-23T08:22:47.556Z,100867.84
2022-12-23T08:27:50.985Z,100856.34
2022-12-23T08:32:52.652Z,100861.44
2022-12-23T08:37:54.176Z,100849.25
2022-12-23T08:42:55.811Z,100852.41
2022-12-23T08:47:57.293Z,100861.25
2022-12-23T08:52:58.945Z,100868.56
2022-12-23T08:58:00.437Z,100860.00
2022-12-23T09:03:02.261Z,100821.28
2022-12-23T09:08:03.969Z,100822.16
2022-12-23T09:13:05.497Z,100806.69
2022-12-23T09:18:06.990Z,100810.25
2022-12-23T09:23:08.562Z,100816.47
2022-12-23T09:28:10.306Z,100802.41
2022-12-23T09:33:11.891Z,100802.06
2022-12-23T09:38:13.498Z,100834.22
2022-12-23T09:43:23.175Z,100847.25
2022-12-23T09:48:29.128Z,100830.13
2022-12-23T09:53:49.372Z,100843.69
2022-12-23T09:59:09.178Z,100851.59
2022-12-23T10:04:22.990Z,100845.00
2022-12-23T10:09:24.662Z,100835.13
2022-12-23T10:14:34.868Z,100816.97
2022-12-23T10:19:43.585Z,100810.50
2022-12-23T10:24:46.883Z,100788.00
2022-12-23T10:29:48.677Z,100764.31
2022-12-23T10:35:08.308Z,100746.91
2022-12-23T10:40:21.057Z,100737.47
2022-12-23T10:45:36.300Z,100735.00
2022-12-23T10:50:46.298Z,100739.75
2022-12-23T10:55:50.370Z,100739.44
2022-12-23T11:01:00.230Z,100717.84
2022-12-23T11:06:02.923Z,100721.56
2022-12-23T11:11:05.933Z,100722.72
2022-12-23T11:16:27.026Z,100732.00
2022-12-23T11:21:30.501Z,100714.25
2022-12-23T11:26:32.529Z,100703.72
2022-12-23T11:31:36.575Z,100713.78
2022-12-23T11:36:38.419Z,100715.84
2022-12-23T11:41:47.770Z,100701.59
2022-12-23T11:46:50.248Z,100700.75
2022-12-23T11:52:02.555Z,100719.94
2022-12-23T11:57:08.199Z,100701.19
2022-12-23T12:02:18.393Z,100695.97
2022-12-23T12:07:20.247Z,100698.81
2022-12-23T12:12:22.139Z,100658.59
2022-12-23T12:17:36.048Z,100648.78
2022-12-23T12:23:07.133Z,100635.34
2022-12-23T12:28:21.180Z,100627.44
2022-12-23T12:33:33.585Z,100615.38
2022-12-23T12:38:38.479Z,100600.25
2022-12-23T12:44:19.087Z,100583.97
2022-12-23T12:49:31.445Z,100562.56
2022-12-23T12:55:02.495Z,100550.72
2022-12-23T13:00:06.968Z,100535.28
2022-12-23T13:05:30.726Z,100514.91
2022-12-23T13:10:57.173Z,100497.63
2022-12-23T13:16:32.821Z,100491.50
2022-12-23T13:22:08.775Z,100481.06
2022-12-23T13:27:21.985Z,100468.13
2022-12-23T13:32:59.212Z,100474.38
2022-12-23T13:38:16.130Z,100484.28
2022-12-23T13:43:23.935Z,100456.56
2022-12-23T13:48:49.555Z,100443.00
2022-12-23T13:54:04.585Z,100421.50
2022-12-23T13:59:10.976Z,100418.84
2022-12-23T14:04:34.697Z,100412.13
2022-12-23T14:09:38.716Z,100396.34
2022-12-23T14:15:02.608Z,100386.25
2022-12-23T14:20:21.305Z,100393.34
2022-12-23T14:25:35.286Z,100386.59
2022-12-23T14:30:42.900Z,100397.00
2022-12-23T14:35:44.423Z,100377.28
2022-12-23T14:40:45.909Z,100369.66
2022-12-23T14:45:52.311Z,100375.13
2022-12-23T14:51:02.190Z,100351.84
2022-12-23T14:56:21.835Z,100335.34
2022-12-23T15:01:33.494Z,100316.25
2022-12-23T15:06:41.482Z,100313.69
2022-12-23T15:11:46.371Z,100316.03
2022-12-23T15:16:48.088Z,100313.47
2022-12-23T15:22:00.292Z,100298.59
2022-12-23T15:27:26.533Z,100289.31
2022-12-23T15:32:29.638Z,100296.47
2022-12-23T15:37:32.431Z,100297.97
2022-12-23T15:42:38.532Z,100280.13
2022-12-23T15:47:45.922Z,100304.03
2022-12-23T15:52:50.609Z,100306.03
2022-12-23T15:57:52.708Z,100315.88
2022-12-23T16:03:00.989Z,100324.53
2022-12-23T16:08:28.579Z,100329.94
2022-12-23T16:13:32.015Z,100332.91
2022-12-23T16:18:47.199Z,100336.34
2022-12-23T16:23:52.477Z,100322.91
2022-12-23T16:29:00.814Z,100304.00
2022-12-23T16:34:07.025Z,100291.84
2022-12-23T16:39:21.800Z,100293.41
2022-12-23T16:44:28.595Z,100289.94
2022-12-23T16:49:33.830Z,100302.50
2022-12-23T16:54:35.792Z,100326.38
2022-12-23T16:59:41.010Z,100313.38
2022-12-23T17:04:42.554Z,100329.31
2022-12-23T17:09:44.077Z,100315.75
2022-12-23T17:14:47.927Z,100320.81
2022-12-23T17:19:49.845Z,100326.88
2022-12-23T17:24:52.324Z,100338.91
2022-12-23T17:29:53.842Z,100335.50
2022-12-23T17:34:55.403Z,100353.63
2022-12-23T17:39:57.381Z,100355.84
2022-12-23T17:44:58.923Z,100350.06
2022-12-23T17:50:00.489Z,100363.00
2022-12-23T17:55:02.101Z,100377.72
2022-12-23T18:00:04.135Z,100373.38
2022-12-23T18:05:19.320Z,100374.56
2022-12-23T18:10:24.502Z,100390.03
2022-12-23T18:15:32.625Z,100378.13
2022-12-23T18:20:34.261Z,100378.22
2022-12-23T18:25:35.786Z,100381.00
2022-12-23T18:30:38.494Z,100380.41
2022-12-23T18:35:48.858Z,100387.56
2022-12-23T18:40:53.879Z,100395.56
2022-12-23T18:45:56.581Z,100394.66
2022-12-23T18:50:59.097Z,100390.50
2022-12-23T18:56:04.860Z,100396.75
2022-12-23T19:01:14.258Z,100381.44
2022-12-23T19:06:16.136Z,100395.22
2022-12-23T19:11:20.448Z,100393.69
2022-12-23T19:16:22.363Z,100398.91
2022-12-23T19:21:23.895Z,100400.56
2022-12-23T19:26:25.551Z,100402.38
2022-12-23T19:31:27.155Z,100404.03
2022-12-23T19:36:29.246Z,100402.44
2022-12-23T19:41:32.035Z,100416.13
2022-12-23T19:46:33.835Z,100420.34
2022-12-23T19:51:35.470Z,100433.41
2022-12-23T19:56:36.990Z,100435.94
2022-12-23T20:01:38.720Z,100445.34
2022-12-23T20:06:41.731Z,100450.56
2022-12-23T20:11:45.759Z,100448.97
2022-12-23T20:16:48.607Z,100447.06
2022-12-23T20:21:50.414Z,100449.00
2022-12-23T20:26:52.089Z,100443.75
2022-12-23T20:31:53.606Z,100474.69
2022-12-23T20:36:55.242Z,100481.41
2022-12-23T20:41:57.446Z,100491.75
2022-12-23T20:46:59.047Z,100509.06
2022-12-23T20:52:00.979Z,100517.69
2022-12-23T20:57:02.896Z,100518.53
2022-12-23T21:02:04.545Z,100514.28
2022-12-23T21:07:06.443Z,100525.34
2022-12-23T21:12:08.036Z,100529.66
2022-12-23T21:17:09.621Z,100545.03
2022-12-23T21:22:11.183Z,100542.13
2022-12-23T21:27:12.728Z,100540.56
2022-12-23T21:32:14.392Z,100539.59
2022-12-23T21:37:15.968Z,100554.09
2022-12-23T21:42:18.470Z,100565.28
2022-12-23T21:47:20.980Z,100563.66
2022-12-23T21:52:24.518Z,100570.47
2022-12-23T21:57:28.066Z,100573.06
2022-12-23T22:02:29.966Z,100565.22
2022-12-23T22:07:31.514Z,100575.50
2022-12-23T22:12:33.027Z,100575.41
2022-12-23T22:17:34.575Z,100579.56
2022-12-23T22:22:36.076Z,100596.44
2022-12-23T22:27:37.568Z,100600.69
2022-12-23T22:32:42.369Z,100611.94
2022-12-23T22:37:44.295Z,100622.13
2022-12-23T22:42:45.817Z,100622.97
2022-12-23T22:47:47.336Z,100634.31
2022-12-23T22:52:48.954Z,100637.88
2022-12-23T22:57:50.530Z,100635.09
2022-12-23T23:02:52.207Z,100638.94
2022-12-23T23:07:53.868Z,100638.69
2022-12-23T23:12:55.368Z,100655.41
2022-12-23T23:17:56.998Z,100657.50
2022-12-23T23:23:00.611Z,100664.06
2022-12-23T23:28:02.241Z,100671.91
2022-12-23T23:33:04.697Z,100664.28
2022-12-23T23:38:06.394Z,100589.56
2022-12-23T23:43:08.358Z,100574.94
2022-12-23T23:48:12.122Z,100561.31
2022-12-23T23:53:15.575Z,100556.13
2022-12-23T23:58:17.905Z,100566.59
